Time;durP1;ratioP1;P1;durP2;ratioP2;P2;SDS_P1;SDS_P2;PMS_P1;PMS_P2;Temp;Humidity;BMP_temperature;BMP_pressure;BME280_temperature;BME280_humidity;BME280_pressure;Samples;Min_cycle;Max_cycle;Signal;HPM_P1;HPM_P2
2024/01/14 00:01:25;;;;;;;19.35;2.67;;;;;;;;;;5006793;28;20115;-57
2024/01/14 00:03:51;;;;;;;12.05;2.80;;;;;;;;;;4989149;28;20049;-56
2024/01/14 00:06:17;;;;;;;11.82;3.58;;;;;;;;;;5011158;28;20397;-56
2024/01/14 00:08:43;;;;;;;14.48;3.80;;;;;;;;;;5005878;28;20042;-57
2024/01/14 00:11:09;;;;;;;15.40;2.22;;;;;;;;;;5010112;28;20045;-58
2024/01/14 00:13:35;;;;;;;13.98;2.10;;;;;;;;;;5006578;28;20493;-57
2024/01/14 00:16:01;;;;;;;12.70;2.53;;;5.50;99.90;;;;;;5004817;28;20070;-57
2024/01/14 00:18:27;;;;;;;17.85;2.90;;;;;;;;;;5011476;28;20091;-57
2024/01/14 00:20:53;;;;;;;11.82;2.45;;;;;;;;;;5008832;28;20592;-57
2024/01/14 00:23:19;;;;;;;10.05;1.80;;;;;;;;;;5005596;28;20307;-58
2024/01/14 00:25:45;;;;;;;11.90;2.13;;;;;;;;;;5006301;28;20452;-58
2024/01/14 00:28:10;;;;;;;11.05;2.10;;;5.70;99.90;;;;;;5012118;28;20069;-58
2024/01/14 00:30:36;;;;;;;9.02;2.30;;;;;;;;;;5004466;28;20517;-55
2024/01/14 00:33:03;;;;;;;13.93;2.50;;;;;;;;;;5091535;23;20135;-50
2024/01/14 00:35:29;;;;;;;8.80;2.03;;;5.40;99.90;;;;;;5043789;28;20412;-51
2024/01/14 00:37:55;;;;;;;12.38;2.17;;;;;;;;;;5061339;28;20045;-49
2024/01/14 00:40:21;;;;;;;10.13;2.58;;;;;;;;;;5069399;28;20111;-53
2024/01/14 00:42:47;;;;;;;16.40;3.15;;;;;;;;;;5063871;28;20044;-52
2024/01/14 00:45:13;;;;;;;12.27;2.22;;;;;;;;;;5063399;28;20066;-51
2024/01/14 00:47:39;;;;;;;11.15;2.35;;;;;;;;;;5063884;28;20032;-53
2024/01/14 00:50:05;;;;;;;11.93;2.65;;;;;;;;;;5063216;28;20515;-49
2024/01/14 00:52:32;;;;;;;10.50;2.83;;;;;;;;;;5067978;28;20044;-55
2024/01/14 00:54:58;;;;;;;13.07;2.45;;;;;;;;;;5060355;28;20054;-50
2024/01/14 00:57:24;;;;;;;9.98;2.80;;;5.10;99.90;;;;;;5060952;28;20068;-50
2024/01/14 00:59:50;;;;;;;18.08;3.28;;;;;;;;;;5061771;28;20067;-52
2024/01/14 01:02:16;;;;;;;13.43;2.58;;;;;;;;;;5058599;28;20662;-53
2024/01/14 01:04:42;;;;;;;13.73;3.03;;;;;;;;;;5061170;28;20048;-52
2024/01/14 01:07:08;;;;;;;12.63;2.25;;;;;;;;;;5063837;28;20090;-53
2024/01/14 01:09:34;;;;;;;14.73;2.50;;;;;;;;;;5068175;28;20094;-51
2024/01/14 01:12:00;;;;;;;15.55;2.55;;;4.90;99.90;;;;;;5066240;28;20055;-51
2024/01/14 01:14:25;;;;;;;14.98;2.50;;;4.90;99.90;;;;;;5063327;28;20041;-51
2024/01/14 01:16:51;;;;;;;15.98;3.45;;;;;;;;;;5058174;28;20385;-55
2024/01/14 01:19:18;;;;;;;10.70;2.22;;;;;;;;;;5064788;28;20085;-52
2024/01/14 01:21:44;;;;;;;12.70;2.58;;;4.70;99.90;;;;;;5062010;28;20404;-51
2024/01/14 01:24:12;;;;;;;13.00;2.60;;;4.60;99.90;;;;;;5068386;28;20040;-52
2024/01/14 01:26:38;;;;;;;12.18;2.55;;;;;;;;;;5063025;28;20037;-52
2024/01/14 01:29:04;;;;;;;11.05;2.53;;;;;;;;;;5059950;28;20121;-50
2024/01/14 01:31:30;;;;;;;14.77;3.85;;;;;;;;;;5061475;28;20037;-52
2024/01/14 01:33:56;;;;;;;14.10;2.65;;;;;;;;;;5059636;28;20051;-50
2024/01/14 01:36:22;;;;;;;11.07;2.45;;;;;;;;;;5061852;28;20093;-51
2024/01/14 01:38:48;;;;;;;12.07;2.58;;;;;;;;;;5062101;28;20403;-51
2024/01/14 01:41:14;;;;;;;12.70;2.85;;;;;;;;;;5063299;28;20512;-50
2024/01/14 01:43:40;;;;;;;15.55;3.65;;;4.40;99.90;;;;;;5071053;28;20049;-51
2024/01/14 01:46:07;;;;;;;14.40;2.67;;;;;;;;;;5066452;28;20047;-52
2024/01/14 01:48:33;;;;;;;16.65;3.50;;;;;;;;;;5064331;28;20036;-52
2024/01/14 01:50:59;;;;;;;20.63;3.05;;;;;;;;;;5069214;28;20062;-52
2024/01/14 01:53:26;;;;;;;15.75;2.95;;;;;;;;;;5065089;28;20623;-51
2024/01/14 01:55:52;;;;;;;15.77;4.00;;;4.30;99.90;;;;;;5068719;28;20076;-53
2024/01/14 01:58:19;;;;;;;19.77;3.10;;;;;;;;;;5068914;28;20491;-52
2024/01/14 02:00:45;;;;;;;18.75;3.45;;;4.40;99.90;;;;;;5064815;28;20040;-53
2024/01/14 02:03:11;;;;;;;14.50;3.65;;;4.40;99.90;;;;;;5067799;28;20480;-52
2024/01/14 02:05:44;;;;;;;13.57;3.42;;;;;;;;;;5069328;28;20086;-56
2024/01/14 02:08:11;;;;;;;15.48;3.38;;;;;;;;;;5067262;28;20047;-53
2024/01/14 02:10:37;;;;;;;14.93;2.95;;;;;;;;;;5066397;28;20553;-55
2024/01/14 02:13:04;;;;;;;13.65;2.70;;;;;;;;;;5069311;28;20507;-55
2024/01/14 02:15:30;;;;;;;13.68;3.42;;;;;;;;;;5068138;28;20048;-52
2024/01/14 02:17:56;;;;;;;15.52;2.85;;;4.10;99.90;;;;;;5059480;28;20095;-52
2024/01/14 02:20:22;;;;;;;14.20;2.50;;;;;;;;;;5064447;28;20436;-55
2024/01/14 02:22:49;;;;;;;11.65;2.65;;;;;;;;;;5065867;28;20106;-53
2024/01/14 02:25:15;;;;;;;15.32;2.50;;;4.10;99.90;;;;;;5065874;28;20389;-52
2024/01/14 02:27:41;;;;;;;11.10;2.63;;;;;;;;;;5065484;28;20033;-52
2024/01/14 02:30:09;;;;;;;15.00;2.83;;;;;;;;;;5065547;28;20037;-51
2024/01/14 02:32:39;;;;;;;16.70;2.58;;;;;;;;;;5065064;28;20111;-51
2024/01/14 02:35:05;;;;;;;14.63;2.50;;;;;;;;;;5064938;28;20055;-52
2024/01/14 02:37:33;;;;;;;10.95;2.33;;;;;;;;;;5064991;28;20041;-52
2024/01/14 02:39:59;;;;;;;15.20;3.08;;;4.00;99.90;;;;;;5067204;28;20037;-52
2024/01/14 02:42:25;;;;;;;15.82;3.83;;;;;;;;;;5068594;28;20103;-53
2024/01/14 02:44:50;;;;;;;13.05;2.30;;;4.10;99.90;;;;;;5068486;28;20174;-50
2024/01/14 02:47:16;;;;;;;12.45;3.17;;;4.20;99.90;;;;;;5066872;28;20111;-51
2024/01/14 02:49:42;;;;;;;13.00;2.88;;;;;;;;;;5066756;28;20415;-53
2024/01/14 02:52:08;;;;;;;11.90;2.65;;;;;;;;;;5068020;28;20036;-55
2024/01/14 02:54:34;;;;;;;14.88;3.00;;;;;;;;;;5065017;28;20062;-54
2024/01/14 02:57:00;;;;;;;19.05;3.55;;;;;;;;;;5064613;28;20647;-51
2024/01/14 02:59:26;;;;;;;14.45;2.65;;;;;;;;;;5066203;28;20043;-52
2024/01/14 03:01:52;;;;;;;11.77;3.67;;;4.20;99.90;;;;;;5066618;28;20037;-51
2024/01/14 03:04:17;;;;;;;14.73;3.20;;;4.20;99.90;;;;;;5062643;28;20037;-51
2024/01/14 03:06:43;;;;;;;14.80;3.35;;;;;;;;;;5067531;28;20095;-55
2024/01/14 03:09:09;;;;;;;14.45;2.90;;;;;;;;;;5063406;28;20036;-55
2024/01/14 03:11:35;;;;;;;11.82;2.45;;;5.00;99.90;;;;;;5061531;28;20656;-50
2024/01/14 03:14:02;;;;;;;16.23;3.17;;;;;;;;;;5062861;28;20033;-52
2024/01/14 03:16:28;;;;;;;17.23;2.85;;;;;;;;;;5065734;28;20037;-51
2024/01/14 03:18:54;;;;;;;12.55;2.25;;;;;;;;;;5059106;28;20623;-54
2024/01/14 03:21:20;;;;;;;16.10;3.20;;;;;;;;;;5063943;28;20103;-54
2024/01/14 03:23:46;;;;;;;10.85;2.70;;;;;;;;;;5062203;28;20028;-54
2024/01/14 03:26:12;;;;;;;13.23;2.88;;;;;;;;;;5064542;28;20040;-52
2024/01/14 03:28:39;;;;;;;16.10;3.17;;;;;;;;;;5057601;28;20594;-51
2024/01/14 03:31:07;;;;;;;15.70;2.83;;;;;;;;;;5050223;28;20033;-52
2024/01/14 03:33:33;;;;;;;19.23;3.08;;;;;;;;;;5057640;28;20575;-52
2024/01/14 03:36:02;;;;;;;11.52;2.92;;;;;;;;;;5059620;28;20044;-52
2024/01/14 03:38:28;;;;;;;15.70;3.85;;;4.80;99.90;;;;;;5064601;28;20384;-53
2024/01/14 03:40:54;;;;;;;14.65;3.45;;;;;;;;;;5061295;28;20051;-57
2024/01/14 03:43:20;;;;;;;15.98;3.10;;;4.70;99.90;;;;;;5065086;28;20033;-51
2024/01/14 03:45:46;;;;;;;12.55;2.80;;;;;;;;;;5057946;28;20044;-53
2024/01/14 03:48:12;;;;;;;15.90;3.60;;;;;;;;;;5063367;28;20040;-50
2024/01/14 03:50:37;;;;;;;17.27;4.38;;;4.60;99.90;;;;;;5061418;28;20066;-51
2024/01/14 03:53:03;;;;;;;15.05;3.10;;;4.60;99.90;;;;;;5066509;28;20032;-50
2024/01/14 03:55:29;;;;;;;11.27;2.67;;;4.60;99.90;;;;;;5055571;28;20040;-51
2024/01/14 03:57:54;;;;;;;14.45;3.03;;;;;;;;;;5066077;28;20029;-52
2024/01/14 04:00:20;;;;;;;15.85;4.28;;;;;;;;;;5060289;28;20174;-54
2024/01/14 04:02:46;;;;;;;18.73;3.83;;;4.40;99.90;;;;;;5066656;28;20041;-51
2024/01/14 04:05:12;;;;;;;13.27;2.85;;;;;;;;;;5060300;28;20037;-51
2024/01/14 04:07:38;;;;;;;18.02;4.03;;;;;;;;;;5064519;28;20404;-53
2024/01/14 04:10:05;;;;;;;18.98;3.58;;;;;;;;;;5063040;28;20036;-53
2024/01/14 04:12:31;;;;;;;17.27;3.72;;;;;;;;;;5067702;28;20101;-52
2024/01/14 04:14:57;;;;;;;14.05;2.65;;;;;;;;;;5064313;28;20044;-52
2024/01/14 04:17:23;;;;;;;21.45;4.15;;;4.00;99.90;;;;;;5059882;28;20035;-51
2024/01/14 04:19:49;;;;;;;15.35;2.88;;;;;;;;;;5058617;28;20094;-51
2024/01/14 04:22:15;;;;;;;15.05;2.63;;;;;;;;;;5062024;28;20089;-53
2024/01/14 04:24:44;;;;;;;19.60;4.03;;;;;;;;;;5063941;28;20109;-52
2024/01/14 04:27:10;;;;;;;14.70;2.72;;;4.00;99.90;;;;;;5065673;28;20036;-52
2024/01/14 04:29:35;;;;;;;12.02;2.70;;;3.90;99.90;;;;;;5065803;28;20032;-52
2024/01/14 04:32:01;;;;;;;17.30;3.30;;;;;;;;;;5066083;28;20112;-53
2024/01/14 04:34:27;;;;;;;12.48;3.60;;;;;;;;;;5065190;28;20036;-53
2024/01/14 04:36:53;;;;;;;17.60;2.75;;;;;;;;;;5063045;28;20048;-54
2024/01/14 04:39:20;;;;;;;13.80;3.22;;;;;;;;;;5069019;28;20041;-55
2024/01/14 04:41:46;;;;;;;14.93;3.15;;;;;;;;;;5066556;28;20036;-53
2024/01/14 04:44:12;;;;;;;12.07;3.85;;;;;;;;;;5069153;28;20451;-55
2024/01/14 04:46:37;;;;;;;10.23;2.30;;;4.20;99.90;;;;;;5069107;28;20059;-55
2024/01/14 04:49:03;;;;;;;17.52;3.03;;;4.30;99.90;;;;;;5066209;28;20040;-53
2024/01/14 04:51:29;;;;;;;10.93;3.55;;;;;;;;;;5068792;28;20111;-55
2024/01/14 04:53:55;;;;;;;16.95;3.47;;;;;;;;;;5066108;28;20048;-52
2024/01/14 04:56:21;;;;;;;13.68;3.33;;;;;;;;;;5069101;28;20039;-54
2024/01/14 04:58:47;;;;;;;10.90;3.47;;;;;;;;;;5064794;28;20404;-53
2024/01/14 05:01:12;;;;;;;12.63;2.90;;;4.40;99.90;;;;;;5062956;28;20068;-52
2024/01/14 05:03:38;;;;;;;10.45;2.55;;;4.40;99.90;;;;;;5067561;28;20056;-51
2024/01/14 05:06:05;;;;;;;8.55;2.45;;;;;;;;;;5066631;28;20068;-54
2024/01/14 05:08:30;;;;;;;13.80;3.10;;;4.50;99.90;;;;;;5071367;28;20526;-54
2024/01/14 05:10:56;;;;;;;17.48;3.45;;;;;;;;;;5066173;28;20128;-53
2024/01/14 05:13:22;;;;;;;13.50;2.50;;;;;;;;;;5066594;28;20223;-52
2024/01/14 05:15:49;;;;;;;12.70;3.65;;;;;;;;;;5065667;28;20592;-53
2024/01/14 05:18:15;;;;;;;15.07;3.15;;;4.40;99.90;;;;;;5068718;28;20090;-52
2024/01/14 05:20:42;;;;;;;13.30;2.55;;;;;;;;;;5069569;28;20115;-54
2024/01/14 05:23:08;;;;;;;16.23;3.72;;;;;;;;;;5068559;28;20062;-53
2024/01/14 05:25:34;;;;;;;11.10;2.40;;;;;;;;;;5064629;28;20075;-51
2024/01/14 05:28:00;;;;;;;12.50;4.18;;;4.40;99.90;;;;;;5069540;28;20044;-51
2024/01/14 05:30:26;;;;;;;15.65;3.63;;;;;;;;;;5061684;28;20033;-55
2024/01/14 05:32:52;;;;;;;15.30;2.97;;;;;;;;;;5063793;28;20076;-54
2024/01/14 05:35:18;;;;;;;14.77;3.53;;;;;;;;;;5066047;28;20079;-55
2024/01/14 05:37:44;;;;;;;13.30;2.83;;;;;;;;;;5047902;28;20312;-55
2024/01/14 05:40:10;;;;;;;11.63;3.35;;;;;;;;;;5070425;28;20036;-55
2024/01/14 05:42:40;;;;;;;10.00;2.25;;;;;;;;;;5063532;28;20182;-54
2024/01/14 05:45:06;;;;;;;9.48;2.38;;;;;;;;;;5063677;28;20047;-56
2024/01/14 05:47:32;;;;;;;16.10;2.50;;;;;;;;;;5064153;28;20041;-52
2024/01/14 05:49:59;;;;;;;14.10;2.75;;;;;;;;;;5068833;28;20040;-53
2024/01/14 05:52:25;;;;;;;11.90;3.28;;;;;;;;;;5066360;28;21316;-52
2024/01/14 05:54:51;;;;;;;11.73;2.47;;;;;;;;;;5071802;28;20040;-51
2024/01/14 05:57:19;;;;;;;9.85;2.15;;;;;;;;;;5068153;28;20131;-52
2024/01/14 05:59:45;;;;;;;16.25;2.33;;;;;;;;;;5068915;28;20058;-54
2024/01/14 06:02:11;;;;;;;8.75;2.58;;;4.30;99.90;;;;;;5066020;28;20165;-54
2024/01/14 06:04:38;;;;;;;16.65;3.10;;;;;;;;;;5067110;28;20066;-54
2024/01/14 06:07:03;;;;;;;10.52;2.20;;;4.30;99.90;;;;;;5069391;28;20048;-55
2024/01/14 06:09:29;;;;;;;11.98;2.30;;;4.20;99.90;;;;;;5062891;28;20039;-51
2024/01/14 06:11:55;;;;;;;13.05;2.22;;;;;;;;;;5071330;28;20036;-54
2024/01/14 06:14:21;;;;;;;10.75;1.70;;;;;;;;;;5071342;28;20043;-55
2024/01/14 06:16:47;;;;;;;9.82;2.17;;;;;;;;;;5067515;28;20047;-53
2024/01/14 06:19:13;;;;;;;7.68;2.35;;;;;;;;;;5062724;28;20117;-52
2024/01/14 06:21:42;;;;;;;7.63;2.08;;;;;;;;;;5066540;28;20033;-54
2024/01/14 06:24:09;;;;;;;10.80;2.03;;;;;;;;;;5065914;28;20475;-51
2024/01/14 06:26:35;;;;;;;13.70;2.22;;;;;;;;;;5064665;28;20032;-54
2024/01/14 06:29:02;;;;;;;9.80;1.90;;;;;;;;;;5062412;28;20040;-54
2024/01/14 06:31:28;;;;;;;12.00;2.65;;;;;;;;;;5066855;28;20040;-55
2024/01/14 06:33:54;;;;;;;12.55;2.40;;;;;;;;;;5097464;22;20060;-65
2024/01/14 06:36:19;;;;;;;10.35;2.35;;;4.30;99.90;;;;;;5029372;28;20519;-65
2024/01/14 06:38:45;;;;;;;10.35;1.70;;;;;;;;;;5032870;28;20072;-66
2024/01/14 06:41:18;;;;;;;8.88;2.28;;;;;;;;;;5028843;28;20033;-65
2024/01/14 06:43:44;;;;;;;9.52;1.95;;;4.60;99.90;;;;;;5013644;28;20034;-66
2024/01/14 06:46:10;;;;;;;7.57;1.30;;;4.50;99.90;;;;;;5031897;28;20581;-66
2024/01/14 06:48:36;;;;;;;7.53;1.65;;;;;;;;;;5034239;28;20116;-66
2024/01/14 06:51:02;;;;;;;5.82;1.70;;;4.50;99.90;;;;;;5029999;28;20425;-66
2024/01/14 06:53:28;;;;;;;8.57;2.42;;;;;;;;;;5030735;28;20041;-66
2024/01/14 06:55:54;;;;;;;6.95;1.40;;;;;;;;;;5013021;28;20037;-66
2024/01/14 06:58:20;;;;;;;15.85;2.40;;;;;;;;;;5034173;28;20523;-66
2024/01/14 07:00:46;;;;;;;7.82;1.23;;;;;;;;;;5027906;28;20128;-66
2024/01/14 07:03:11;;;;;;;12.77;1.70;;;4.50;99.90;;;;;;5033167;28;20405;-66
2024/01/14 07:05:37;;;;;;;6.65;1.52;;;;;;;;;;5018469;28;20040;-65
2024/01/14 07:08:05;;;;;;;7.55;1.50;;;;;;;;;;5022443;28;20121;-66
2024/01/14 07:10:31;;;;;;;8.77;2.03;;;4.50;99.90;;;;;;5025903;28;20116;-66
2024/01/14 07:12:56;;;;;;;8.57;1.67;;;4.50;99.90;;;;;;5029422;28;20095;-66
2024/01/14 07:15:23;;;;;;;9.05;1.92;;;;;;;;;;5016565;28;20413;-65
2024/01/14 07:17:49;;;;;;;9.85;1.70;;;;;;;;;;5023056;28;20500;-66
2024/01/14 07:20:15;;;;;;;10.43;1.88;;;;;;;;;;5021094;28;20077;-66
2024/01/14 07:22:41;;;;;;;12.98;3.05;;;4.50;99.90;;;;;;5020948;28;20030;-66
2024/01/14 07:25:08;;;;;;;8.75;2.15;;;;;;;;;;5028465;28;20107;-65
2024/01/14 07:27:35;;;;;;;7.20;1.55;;;;;;;;;;5018903;28;20488;-65
2024/01/14 07:30:01;;;;;;;8.70;2.67;;;;;;;;;;5022086;28;20117;-66
2024/01/14 07:32:27;;;;;;;11.50;2.40;;;;;;;;;;5023622;28;20756;-66
2024/01/14 07:34:53;;;;;;;8.93;2.42;;;;;;;;;;5023317;28;20592;-66
2024/01/14 07:37:20;;;;;;;12.48;2.45;;;;;;;;;;5003648;28;20129;-66
2024/01/14 07:39:46;;;;;;;7.45;2.05;;;;;;;;;;5025871;28;20120;-66
2024/01/14 07:42:12;;;;;;;11.68;2.20;;;;;;;;;;5027785;28;20037;-66
2024/01/14 07:44:39;;;;;;;14.75;2.83;;;;;;;;;;5026726;28;20088;-65
2024/01/14 07:47:05;;;;;;;11.00;2.10;;;;;;;;;;5027023;28;20038;-66
2024/01/14 07:49:30;;;;;;;13.85;4.25;;;4.30;99.90;;;;;;5016145;28;20034;-66
2024/01/14 07:51:57;;;;;;;9.35;2.40;;;;;;;;;;5018190;28;20398;-66
2024/01/14 07:54:23;;;;;;;10.27;2.25;;;;;;;;;;5013567;28;20046;-66
2024/01/14 07:56:49;;;;;;;11.52;3.17;;;;;;;;;;5023430;28;20060;-66
2024/01/14 07:59:15;;;;;;;10.73;2.13;;;;;;;;;;5003266;28;20049;-66
2024/01/14 08:01:41;;;;;;;7.70;2.13;;;;;;;;;;5022307;28;20091;-66
2024/01/14 08:04:07;;;;;;;11.90;2.30;;;;;;;;;;5018782;28;20127;-67
2024/01/14 08:06:33;;;;;;;10.00;2.80;;;;;;;;;;5026083;28;20496;-66
2024/01/14 08:08:59;;;;;;;11.20;2.42;;;;;;;;;;5018381;28;20532;-66
2024/01/14 08:11:25;;;;;;;7.38;1.92;;;;;;;;;;5025741;28;20040;-66
2024/01/14 08:13:51;;;;;;;9.13;2.20;;;;;;;;;;5028756;28;20056;-66
2024/01/14 08:16:17;;;;;;;12.75;2.50;;;;;;;;;;5001946;28;20038;-66
2024/01/14 08:18:43;;;;;;;16.77;2.95;;;;;;;;;;5019262;28;20043;-66
2024/01/14 08:21:11;;;;;;;18.15;3.67;;;;;;;;;;5019690;28;20120;-66
2024/01/14 08:23:37;;;;;;;14.02;3.10;;;;;;;;;;5013440;28;20457;-66
2024/01/14 08:26:04;;;;;;;9.85;2.40;;;;;;;;;;4997158;28;20049;-66
2024/01/14 08:28:31;;;;;;;8.32;2.30;;;;;;;;;;5020610;28;20041;-66
2024/01/14 08:30:57;;;;;;;11.48;2.42;;;;;;;;;;4993004;28;20073;-66
2024/01/14 08:33:23;;;;;;;12.45;3.10;;;;;;;;;;5024295;28;20046;-66
2024/01/14 08:35:50;;;;;;;17.67;3.30;;;;;;;;;;5030737;28;20048;-66
2024/01/14 08:38:16;;;;;;;13.02;2.38;;;;;;;;;;5016291;28;20080;-66
2024/01/14 08:40:42;;;;;;;13.20;2.75;;;;;;;;;;5019404;28;20049;-66
2024/01/14 08:43:07;;;;;;;12.38;2.55;;;4.20;99.90;;;;;;5029597;28;20034;-66
2024/01/14 08:45:33;;;;;;;13.35;2.20;;;;;;;;;;5024267;28;20505;-66
2024/01/14 08:47:59;;;;;;;13.90;2.65;;;;;;;;;;5021438;28;20420;-66
2024/01/14 08:50:25;;;;;;;17.73;3.15;;;;;;;;;;5022831;28;20045;-66
2024/01/14 08:52:51;;;;;;;12.73;3.00;;;;;;;;;;5025052;28;20043;-67
2024/01/14 08:55:17;;;;;;;7.60;2.65;;;;;;;;;;5023275;28;20033;-67
2024/01/14 08:57:43;;;;;;;14.45;2.50;;;;;;;;;;5021541;28;20048;-67
2024/01/14 09:00:10;;;;;;;15.55;2.78;;;;;;;;;;5024136;28;20221;-67
2024/01/14 09:02:36;;;;;;;7.88;2.75;;;;;;;;;;5026129;28;20034;-67
2024/01/14 09:05:02;;;;;;;12.90;2.90;;;;;;;;;;5019489;28;20077;-67
2024/01/14 09:07:28;;;;;;;11.43;2.95;;;;;;;;;;5018561;28;20046;-67
2024/01/14 09:09:54;;;;;;;13.55;3.58;;;;;;;;;;5019991;28;20092;-67
2024/01/14 09:12:20;;;;;;;12.10;3.10;;;;;;;;;;5022850;28;20509;-67
2024/01/14 09:14:46;;;;;;;14.73;4.70;;;;;;;;;;5024002;28;20045;-66
2024/01/14 09:17:11;;;;;;;11.82;3.20;;;4.20;99.90;;;;;;5022285;28;20040;-67
2024/01/14 09:19:37;;;;;;;11.32;2.90;;;;;;;;;;5016368;28;20086;-67
2024/01/14 09:22:04;;;;;;;12.10;3.38;;;;;;;;;;5023618;28;20409;-67
2024/01/14 09:24:30;;;;;;;16.85;3.92;;;;;;;;;;5019101;28;20041;-67
2024/01/14 09:26:56;;;;;;;11.90;3.13;;;;;;;;;;5025547;28;20033;-67
2024/01/14 09:29:22;;;;;;;12.30;3.10;;;4.00;99.90;;;;;;5016364;28;20046;-67
2024/01/14 09:31:48;;;;;;;12.68;2.72;;;;;;;;;;5010809;28;20056;-67
2024/01/14 09:34:14;;;;;;;11.73;3.35;;;;;;;;;;5015963;28;20071;-67
2024/01/14 09:36:41;;;;;;;15.43;3.30;;;;;;;;;;5021096;28;20044;-67
2024/01/14 09:39:13;;;;;;;11.30;2.95;;;;;;;;;;5016268;28;20087;-67
2024/01/14 09:41:48;;;;;;;12.95;2.95;;;;;;;;;;5014732;28;20041;-67
2024/01/14 09:44:15;;;;;;;14.35;4.30;;;;;;;;;;5016061;28;21581;-67
2024/01/14 09:46:42;;;;;;;19.52;3.05;;;;;;;;;;5002509;28;20044;-67
2024/01/14 09:49:10;;;;;;;15.68;2.92;;;;;;;;;;5015130;28;20135;-67
2024/01/14 09:51:37;;;;;;;10.68;2.78;;;4.90;99.90;;;;;;5018983;28;20365;-67
2024/01/14 09:54:03;;;;;;;11.23;2.65;;;;;;;;;;5015427;28;21631;-67
2024/01/14 09:56:33;;;;;;;11.43;3.58;;;5.40;99.90;;;;;;5020645;28;20041;-67
2024/01/14 09:59:00;;;;;;;17.20;3.65;;;;;;;;;;5026805;28;20044;-67
2024/01/14 10:01:30;;;;;;;13.45;3.08;;;;;;;;;;5021392;28;20046;-67
2024/01/14 10:04:00;;;;;;;15.88;3.53;;;;;;;;;;5021528;28;20045;-66
2024/01/14 10:06:27;;;;;;;15.20;2.92;;;;;;;;;;5019802;28;20034;-67
2024/01/14 10:08:53;;;;;;;10.73;2.53;;;;;;;;;;5027108;28;20427;-67
2024/01/14 10:11:19;;;;;;;13.57;2.88;;;;;;;;;;5021909;28;20033;-67
2024/01/14 10:13:45;;;;;;;10.75;2.22;;;5.20;99.90;;;;;;5024501;28;20412;-67
2024/01/14 10:16:14;;;;;;;17.95;2.22;;;;;;;;;;5020153;28;20050;-67
2024/01/14 10:18:40;;;;;;;11.48;2.25;;;;;;;;;;5025650;28;20120;-66
2024/01/14 10:21:06;;;;;;;14.63;2.78;;;;;;;;;;5027531;28;20129;-67
2024/01/14 10:23:32;;;;;;;14.20;2.58;;;;;;;;;;5010841;28;20048;-67
2024/01/14 10:26:01;;;;;;;11.20;2.72;;;;;;;;;;5027202;28;20493;-67
2024/01/14 10:28:38;;;;;;;7.97;2.40;;;5.40;99.90;;;;;;5023685;28;20041;-67
2024/01/14 10:31:06;;;;;;;16.85;2.78;;;;;;;;;;5023560;28;20063;-67
2024/01/14 10:33:33;;;;;;;11.40;2.13;;;;;;;;;;5023008;28;20065;-66
2024/01/14 10:36:00;;;;;;;11.20;2.10;;;;;;;;;;5007813;28;20069;-67
2024/01/14 10:38:26;;;;;;;12.80;2.42;;;;;;;;;;5020029;28;20474;-67
2024/01/14 10:40:52;;;;;;;10.70;2.83;;;;;;;;;;5026328;28;20045;-67
2024/01/14 10:43:18;;;;;;;11.27;2.85;;;;;;;;;;5027772;28;20033;-67
2024/01/14 10:45:47;;;;;;;10.85;2.80;;;;;;;;;;5024873;28;20041;-67
2024/01/14 10:48:13;;;;;;;11.68;3.25;;;;;;;;;;5023563;28;20038;-67
2024/01/14 10:50:42;;;;;;;7.65;2.53;;;;;;;;;;5021169;28;20049;-67
2024/01/14 10:53:11;;;;;;;9.90;2.75;;;;;;;;;;5009215;28;20465;-67
2024/01/14 10:55:42;;;;;;;11.60;2.97;;;;;;;;;;5014855;28;20509;-67
2024/01/14 10:58:12;;;;;;;13.23;2.95;;;;;;;;;;5021820;28;20041;-67
2024/01/14 11:00:39;;;;;;;10.18;2.50;;;;;;;;;;5019401;28;20072;-67
2024/01/14 11:03:07;;;;;;;11.88;3.35;;;;;;;;;;5029985;28;20037;-67
2024/01/14 11:05:34;;;;;;;11.52;4.05;;;5.70;99.90;;;;;;5023830;28;20040;-66
2024/01/14 11:08:02;;;;;;;14.45;2.78;;;;;;;;;;5023276;28;20049;-67
2024/01/14 11:10:28;;;;;;;10.93;2.17;;;;;;;;;;5019726;28;20705;-67
2024/01/14 11:13:13;;;;;;;7.90;2.72;;;;;;;;;;5020396;28;20040;-67
2024/01/14 11:15:55;;;;;;;8.07;2.42;;;5.60;99.90;;;;;;5003917;28;20196;-68
2024/01/14 11:18:41;;;;;;;10.52;2.88;;;;;;;;;;5026166;28;20613;-67
2024/01/14 11:21:23;;;;;;;9.63;2.53;;;;;;;;;;5024507;28;20034;-67
2024/01/14 11:23:49;;;;;;;15.82;2.97;;;;;;;;;;4999982;28;20049;-67
2024/01/14 11:26:16;;;;;;;12.32;2.80;;;5.80;99.90;;;;;;4975658;28;20049;-67
2024/01/14 11:28:45;;;;;;;7.28;1.90;;;5.80;99.90;;;;;;5015187;28;20171;-67
2024/01/14 11:31:11;;;;;;;15.32;2.30;;;;;;;;;;5014587;28;20092;-67
2024/01/14 11:33:46;;;;;;;9.07;1.83;;;;;;;;;;5012761;28;20046;-67
2024/01/14 11:36:32;;;;;;;8.70;1.60;;;;;;;;;;5015709;28;20539;-67
2024/01/14 11:39:05;;;;;;;8.90;2.55;;;;;;;;;;5000066;28;20206;-67
2024/01/14 11:41:35;;;;;;;6.75;1.65;;;;;;;;;;5012604;28;20049;-67
2024/01/14 11:44:05;;;;;;;7.40;1.83;;;;;;;;;;5018417;28;20041;-67
2024/01/14 11:46:37;;;;;;;10.90;1.95;;;;;;;;;;5017223;28;20480;-67
2024/01/14 11:49:06;;;;;;;11.38;2.13;;;6.50;99.90;;;;;;5016954;28;20037;-67
2024/01/14 11:51:34;;;;;;;11.55;2.25;;;;;;;;;;5017984;28;20049;-67
2024/01/14 11:54:05;;;;;;;9.43;2.05;;;;;;;;;;5021430;28;20053;-67
2024/01/14 11:56:31;;;;;;;10.98;1.42;;;;;;;;;;5020902;28;20456;-67
2024/01/14 11:59:00;;;;;;;6.53;1.40;;;;;;;;;;5018495;28;20045;-67
2024/01/14 12:01:31;;;;;;;10.50;1.75;;;;;;;;;;5018065;28;20060;-67
2024/01/14 12:04:00;;;;;;;8.40;1.65;;;;;;;;;;5014878;28;20084;-67
2024/01/14 12:06:29;;;;;;;7.88;2.47;;;;;;;;;;5022128;28;20045;-67
2024/01/14 12:09:01;;;;;;;6.15;1.85;;;;;;;;;;5021686;28;20041;-66
2024/01/14 12:11:27;;;;;;;7.10;1.40;;;;;;;;;;5019876;28;20045;-66
2024/01/14 12:13:53;;;;;;;7.38;2.10;;;;;;;;;;5014822;28;20162;-66
2024/01/14 12:16:19;;;;;;;6.65;1.50;;;9.70;99.90;;;;;;5021060;28;20056;-66
2024/01/14 12:18:45;;;;;;;6.78;1.48;;;9.90;99.90;;;;;;5016997;28;20045;-66
2024/01/14 12:21:11;;;;;;;7.82;1.40;;;;;;;;;;5013607;28;20040;-66
2024/01/14 12:23:37;;;;;;;6.35;1.45;;;;;;;;;;5017961;28;20060;-67
2024/01/14 12:26:06;;;;;;;5.15;1.63;;;9.30;99.90;;;;;;5011576;28;20045;-66
2024/01/14 12:28:33;;;;;;;8.05;1.55;;;;;;;;;;5018022;28;20129;-66
2024/01/14 12:30:59;;;;;;;6.88;2.00;;;;;;;;;;5015767;28;20072;-66
2024/01/14 12:33:26;;;;;;;7.82;1.85;;;;;;;;;;5101415;22;20049;-59
2024/01/14 12:35:52;;;;;;;7.13;1.67;;;;;;;;;;5037604;28;20057;-59
2024/01/14 12:38:18;;;;;;;4.70;1.30;;;;;;;;;;5035585;28;20128;-58
2024/01/14 12:40:44;;;;;;;5.20;1.40;;;;;;;;;;5019972;28;20087;-59
2024/01/14 12:43:12;;;;;;;7.90;1.60;;;;;;;;;;5020295;28;20123;-60
2024/01/14 12:45:49;;;;;;;6.80;1.52;;;12.80;99.90;;;;;;5022009;28;20042;-59
2024/01/14 12:48:22;;;;;;;4.82;1.02;;;;;;;;;;5022359;28;20487;-58
2024/01/14 12:50:49;;;;;;;8.23;2.70;;;;;;;;;;5020849;28;20132;-59
2024/01/14 12:53:15;;;;;;;7.97;1.70;;;10.30;99.90;;;;;;5007059;28;20054;-59
2024/01/14 12:55:44;;;;;;;7.78;2.05;;;;;;;;;;5013481;28;20120;-59
2024/01/14 12:58:10;;;;;;;7.22;1.33;;;;;;;;;;5020925;28;20065;-59
2024/01/14 13:00:38;;;;;;;5.72;1.50;;;;;;;;;;5019357;28;20640;-58
2024/01/14 13:03:06;;;;;;;7.97;1.38;;;;;;;;;;5019854;28;20048;-59
2024/01/14 13:05:32;;;;;;;4.25;1.08;;;;;;;;;;5017822;28;20045;-59
2024/01/14 13:07:58;;;;;;;4.10;0.90;;;;;;;;;;5024304;28;20052;-59
2024/01/14 13:10:24;;;;;;;3.90;0.90;;;;;;;;;;5025009;28;20071;-58
2024/01/14 13:12:50;;;;;;;2.78;0.80;;;;;;;;;;5024897;28;20128;-59
2024/01/14 13:15:16;;;;;;;3.83;1.00;;;14.10;99.90;;;;;;5014638;28;20057;-60
2024/01/14 13:17:42;;;;;;;4.68;1.25;;;;;;;;;;5023528;28;20148;-59
2024/01/14 13:20:08;;;;;;;3.95;1.00;;;15.10;99.90;;;;;;5016174;28;20428;-59
2024/01/14 13:22:35;;;;;;;4.90;1.20;;;15.00;99.90;;;;;;5015900;28;20049;-58
2024/01/14 13:25:01;;;;;;;6.80;1.65;;;;;;;;;;5018463;28;20095;-59
2024/01/14 13:27:27;;;;;;;4.18;1.10;;;;;;;;;;5015235;28;20037;-59
2024/01/14 13:29:54;;;;;;;5.00;1.05;;;;;;;;;;5016627;28;20409;-57
2024/01/14 13:32:20;;;;;;;6.47;2.00;;;;;;;;;;5010131;28;20408;-60
2024/01/14 13:34:46;;;;;;;5.78;1.40;;;;;;;;;;5010393;28;20501;-59
2024/01/14 13:37:12;;;;;;;4.45;1.00;;;;;;;;;;5024064;28;20037;-58
2024/01/14 13:39:38;;;;;;;3.40;0.80;;;10.90;99.90;;;;;;5023233;28;20038;-59
2024/01/14 13:42:05;;;;;;;6.57;1.10;;;;;;;;;;5022776;28;20405;-59
2024/01/14 13:44:31;;;;;;;8.07;2.30;;;;;;;;;;5024901;28;20120;-59
2024/01/14 13:46:57;;;;;;;5.00;1.40;;;;;;;;;;5025952;28;20044;-58
2024/01/14 13:49:24;;;;;;;5.70;1.17;;;;;;;;;;5020464;28;20041;-59
2024/01/14 13:51:50;;;;;;;4.20;1.30;;;;;;;;;;5017979;28;20049;-58
2024/01/14 13:54:16;;;;;;;4.18;0.90;;;;;;;;;;5021075;28;20410;-59
2024/01/14 13:56:43;;;;;;;4.78;1.00;;;;;;;;;;5019773;28;20410;-58
2024/01/14 13:59:09;;;;;;;6.97;1.38;;;;;;;;;;5020863;28;20130;-59
2024/01/14 14:01:40;;;;;;;7.30;1.30;;;9.00;99.90;;;;;;5024527;28;20485;-59
2024/01/14 14:04:06;;;;;;;9.25;2.00;;;;;;;;;;5022950;28;20531;-58
2024/01/14 14:06:35;;;;;;;9.55;1.50;;;;;;;;;;5023752;28;20045;-58
2024/01/14 14:09:01;;;;;;;7.47;1.40;;;;;;;;;;5025954;28;20041;-59